Time;durP1;ratioP1;P1;durP2;ratioP2;P2;SDS_P1;SDS_P2;PMS_P1;PMS_P2;Temp;Humidity;BMP_temperature;BMP_pressure;BME280_temperature;BME280_humidity;BME280_pressure;Samples;Min_cycle;Max_cycle;Signal;HPM_P1;HPM_P2
2023/02/01 00:01:43;;;;;;;49.27;17.50;;;5.20;87.40;;;;;;5021021;28;20222;-86
2023/02/01 00:04:08;;;;;;;43.00;18.27;;;5.10;87.40;;;;;;5020688;28;20261;-86
2023/02/01 00:06:34;;;;;;;38.90;16.13;;;5.20;87.30;;;;;;5020429;28;20711;-86
2023/02/01 00:09:00;;;;;;;42.47;16.20;;;5.20;87.10;;;;;;5022037;28;20176;-86
2023/02/01 00:11:25;;;;;;;52.80;17.67;;;5.20;86.90;;;;;;5020426;28;20197;-86
2023/02/01 00:13:51;;;;;;;36.93;16.63;;;5.20;86.70;;;;;;5019653;28;20201;-86
2023/02/01 00:16:20;;;;;;;46.47;15.70;;;5.20;86.60;;;;;;5019988;28;20173;-86
2023/02/01 00:18:47;;;;;;;37.73;15.30;;;5.20;86.20;;;;;;5018751;28;20224;-86
2023/02/01 00:21:15;;;;;;;48.00;17.27;;;5.20;86.10;;;;;;5021378;28;20229;-85
2023/02/01 00:23:40;;;;;;;38.17;16.77;;;5.30;85.80;;;;;;5023769;28;20189;-86
2023/02/01 00:26:12;;;;;;;29.50;15.03;;;5.40;85.40;;;;;;5024190;28;20200;-86
2023/02/01 00:28:38;;;;;;;41.33;16.57;;;5.40;85.60;;;;;;5023713;28;20185;-86
2023/02/01 00:31:04;;;;;;;56.70;18.00;;;5.40;85.50;;;;;;5023134;28;20273;-86
2023/02/01 00:33:31;;;;;;;40.33;16.83;;;5.30;86.00;;;;;;5023937;28;20215;-86
2023/02/01 00:35:58;;;;;;;47.27;17.90;;;5.40;86.30;;;;;;5023618;28;20320;-86
2023/02/01 00:38:25;;;;;;;42.67;16.97;;;5.50;86.40;;;;;;5025671;28;20247;-86
2023/02/01 00:40:50;;;;;;;50.03;18.60;;;5.50;86.60;;;;;;5024852;28;20223;-86
2023/02/01 00:43:16;;;;;;;47.17;17.00;;;5.40;87.10;;;;;;5024213;28;20209;-86
2023/02/01 00:45:41;;;;;;;63.03;18.73;;;5.40;87.30;;;;;;5023668;28;20185;-86
2023/02/01 00:48:07;;;;;;;56.20;20.00;;;5.40;87.30;;;;;;5024159;28;20223;-86
2023/02/01 00:50:32;;;;;;;62.83;20.50;;;5.40;87.40;;;;;;5024293;28;20289;-86
2023/02/01 00:52:58;;;;;;;59.70;21.23;;;5.60;87.10;;;;;;5023151;28;20201;-86
2023/02/01 00:55:24;;;;;;;56.07;19.40;;;5.60;86.90;;;;;;5023493;28;20216;-86
2023/02/01 00:57:49;;;;;;;40.17;17.57;;;5.50;86.90;;;;;;5022815;28;20210;-86
2023/02/01 01:00:15;;;;;;;59.20;18.93;;;5.50;86.90;;;;;;5024067;28;20220;-86
2023/02/01 01:02:41;;;;;;;62.03;19.57;;;5.50;86.70;;;;;;5021489;28;20207;-86
2023/02/01 01:05:07;;;;;;;51.20;19.73;;;5.60;86.50;;;;;;5023961;28;20220;-87
2023/02/01 01:07:32;;;;;;;46.80;18.50;;;5.50;86.60;;;;;;5023109;28;20188;-86
2023/02/01 01:09:58;;;;;;;47.43;18.47;;;5.40;86.70;;;;;;5022438;28;20178;-87
2023/02/01 01:12:23;;;;;;;52.43;20.23;;;5.50;86.80;;;;;;5021227;28;20675;-86
2023/02/01 01:14:49;;;;;;;52.53;19.03;;;5.40;86.70;;;;;;5021490;28;20199;-86
2023/02/01 01:17:14;;;;;;;52.20;18.53;;;5.40;86.70;;;;;;5023071;28;20714;-86
2023/02/01 01:19:40;;;;;;;53.40;19.43;;;5.50;86.40;;;;;;5021650;28;20188;-86
2023/02/01 01:22:06;;;;;;;59.13;18.93;;;5.40;86.40;;;;;;5021565;28;20228;-86
2023/02/01 01:24:31;;;;;;;41.20;16.80;;;5.50;86.10;;;;;;5022380;28;20177;-86
2023/02/01 01:26:57;;;;;;;47.03;17.80;;;5.50;86.20;;;;;;5021685;28;20184;-86
2023/02/01 01:29:22;;;;;;;39.50;16.10;;;5.40;86.20;;;;;;5021897;28;20177;-86
2023/02/01 01:31:48;;;;;;;42.97;17.73;;;5.50;85.90;;;;;;5020492;28;20204;-86
2023/02/01 01:34:13;;;;;;;45.53;17.93;;;5.50;85.70;;;;;;5021443;28;20173;-86
2023/02/01 01:36:39;;;;;;;35.07;17.00;;;5.50;85.90;;;;;;5024060;28;20550;-85
2023/02/01 01:39:04;;;;;;;47.70;17.97;;;5.40;86.30;;;;;;5022049;28;20268;-86
2023/02/01 01:41:31;;;;;;;31.17;16.90;;;5.40;86.20;;;;;;5021657;28;20190;-86
2023/02/01 01:44:45;;;;;;;53.23;18.43;;;5.40;86.40;;;;;;5021449;28;20188;-86
2023/02/01 01:47:10;;;;;;;64.43;20.53;;;5.40;86.70;;;;;;5022847;28;20181;-86
2023/02/01 01:49:38;;;;;;;52.50;18.80;;;5.50;86.80;;;;;;5021009;28;20177;-86
2023/02/01 01:52:03;;;;;;;54.03;19.53;;;5.40;87.10;;;;;;5020850;28;20265;-86
2023/02/01 01:54:37;;;;;;;53.13;18.07;;;5.50;87.10;;;;;;5021945;28;20212;-86
2023/02/01 01:57:08;;;;;;;49.80;18.00;;;5.50;87.10;;;;;;5022462;28;20161;-86
2023/02/01 01:59:37;;;;;;;66.50;21.37;;;5.50;87.40;;;;;;5022921;28;20169;-86
2023/02/01 02:02:04;;;;;;;49.97;19.20;;;5.50;87.50;;;;;;5022179;28;20212;-86
2023/02/01 02:04:32;;;;;;;50.43;18.23;;;5.50;87.60;;;;;;5021469;28;20181;-86
2023/02/01 02:07:03;;;;;;;69.57;22.30;;;5.60;87.60;;;;;;5021038;28;20268;-86
2023/02/01 02:09:28;;;;;;;51.43;18.30;;;5.60;87.60;;;;;;5018570;28;20271;-86
2023/02/01 02:11:54;;;;;;;52.03;18.10;;;5.50;87.70;;;;;;5020492;28;20247;-86
2023/02/01 02:14:22;;;;;;;52.33;19.67;;;5.50;88.00;;;;;;5021317;28;20184;-86
2023/02/01 02:17:06;;;;;;;50.97;18.43;;;5.50;88.20;;;;;;5020965;28;20186;-85
2023/02/01 02:19:46;;;;;;;62.53;21.70;;;5.50;88.40;;;;;;5021048;28;20264;-86
2023/02/01 02:22:37;;;;;;;52.67;21.33;;;5.40;88.90;;;;;;5020681;28;20220;-86
2023/02/01 02:25:36;;;;;;;59.93;22.43;;;5.40;89.30;;;;;;5021592;28;20177;-86
2023/02/01 02:28:29;;;;;;;44.73;20.70;;;5.30;89.70;;;;;;5020633;28;20189;-86
2023/02/01 02:31:19;;;;;;;56.00;20.60;;;5.40;89.40;;;;;;5020197;28;20204;-86
2023/02/01 02:34:06;;;;;;;54.13;21.23;;;5.40;89.30;;;;;;5019963;28;20216;-86
2023/02/01 02:36:37;;;;;;;49.70;18.77;;;5.40;89.30;;;;;;5020101;28;20168;-86
2023/02/01 02:39:17;;;;;;;49.90;20.77;;;5.40;89.20;;;;;;5020103;28;20165;-86
2023/02/01 02:48:24;;;;;;;34.53;16.13;;;5.50;89.00;;;;;;5020915;28;20185;-86
2023/02/01 03:05:10;;;;;;;39.57;22.93;;;5.20;91.50;;;;;;5020583;28;20227;-86
2023/02/01 03:07:54;;;;;;;43.20;23.00;;;5.30;91.10;;;;;;5018936;28;20196;-87
2023/02/01 03:10:38;;;;;;;45.47;22.07;;;5.30;91.00;;;;;;5020837;28;20235;-87
2023/02/01 03:13:08;;;;;;;39.90;21.87;;;5.30;90.60;;;;;;5018167;28;20197;-86
2023/02/01 03:15:43;;;;;;;35.53;18.90;;;5.20;90.80;;;;;;5018063;28;20177;-86
2023/02/01 03:18:24;;;;;;;32.73;20.00;;;5.10;90.60;;;;;;5020038;28;20165;-86
2023/02/01 03:20:53;;;;;;;31.33;19.13;;;5.10;90.50;;;;;;5020341;28;20292;-86
2023/02/01 03:23:22;;;;;;;38.87;19.30;;;5.10;90.30;;;;;;5019101;28;20188;-86
2023/02/01 03:25:51;;;;;;;37.90;20.93;;;5.10;90.30;;;;;;5019018;28;20193;-86
2023/02/01 03:28:20;;;;;;;27.03;19.03;;;5.10;90.40;;;;;;5019531;28;20215;-86
2023/02/01 03:30:48;;;;;;;31.70;19.63;;;5.10;90.60;;;;;;5019044;28;20671;-86
2023/02/01 03:33:21;;;;;;;54.30;20.73;;;5.20;90.50;;;;;;5020103;28;20204;-86
2023/02/01 03:36:06;;;;;;;47.03;22.47;;;5.20;90.40;;;;;;5019554;28;20215;-86
2023/02/01 03:38:38;;;;;;;28.10;20.40;;;5.20;90.60;;;;;;5020267;28;20185;-86
2023/02/01 03:41:27;;;;;;;40.77;22.33;;;5.30;90.60;;;;;;5019341;28;20197;-86
2023/02/01 03:44:13;;;;;;;35.53;19.73;;;5.30;90.50;;;;;;5019535;28;20533;-86
2023/02/01 03:46:57;;;;;;;40.80;20.87;;;5.30;90.60;;;;;;5019192;28;20188;-86
2023/02/01 03:49:54;;;;;;;42.87;21.97;;;5.30;90.70;;;;;;5018688;28;20651;-86
2023/02/01 03:52:26;;;;;;;52.37;23.70;;;5.30;90.90;;;;;;5018853;28;20253;-86
2023/02/01 03:54:53;;;;;;;55.57;28.07;;;5.20;91.30;;;;;;5017098;28;20627;-87
2023/02/01 03:57:24;;;;;;;35.17;27.00;;;5.20;91.60;;;;;;5017928;28;20180;-87
2023/02/01 03:59:50;;;;;;;53.63;27.23;;;5.20;91.70;;;;;;5019357;28;20168;-86
2023/02/01 04:02:16;;;;;;;40.07;27.67;;;5.20;91.90;;;;;;5018792;28;20538;-87
2023/02/01 04:04:41;;;;;;;43.80;23.70;;;5.20;91.80;;;;;;5018709;28;20215;-85
2023/02/01 04:07:07;;;;;;;49.50;24.60;;;5.20;91.50;;;;;;5018157;28;20184;-86
2023/02/01 04:09:32;;;;;;;50.20;24.83;;;5.20;91.40;;;;;;5018148;28;20224;-86
2023/02/01 04:11:58;;;;;;;38.93;24.77;;;5.20;91.40;;;;;;5018250;28;20208;-86
2023/02/01 04:14:23;;;;;;;46.70;24.20;;;5.20;91.30;;;;;;5018759;28;20185;-86
2023/02/01 04:16:49;;;;;;;40.67;23.50;;;5.20;91.30;;;;;;5018928;28;20184;-86
2023/02/01 04:19:15;;;;;;;38.17;21.50;;;5.20;91.20;;;;;;5019681;28;20180;-86
2023/02/01 04:21:40;;;;;;;26.73;20.27;;;5.20;91.20;;;;;;5017754;28;20573;-88
2023/02/01 04:24:06;;;;;;;28.23;18.73;;;5.10;91.10;;;;;;5018206;28;20187;-87
2023/02/01 04:26:32;;;;;;;24.60;21.50;;;5.10;91.00;;;;;;5018199;28;20191;-86
2023/02/01 04:28:57;;;;;;;26.53;19.73;;;5.00;91.40;;;;;;5017915;28;20207;-86
2023/02/01 04:31:27;;;;;;;29.27;22.37;;;4.90;91.60;;;;;;5017637;28;20203;-86
2023/02/01 04:33:54;;;;;;;34.83;24.43;;;4.80;91.80;;;;;;5017575;28;20212;-86
2023/02/01 04:36:23;;;;;;;27.63;24.80;;;4.90;91.70;;;;;;5017117;28;20176;-87
2023/02/01 04:38:52;;;;;;;29.23;25.23;;;4.80;91.70;;;;;;5015921;28;20180;-87
2023/02/01 04:41:18;;;;;;;27.10;24.57;;;4.80;91.60;;;;;;5016318;28;20197;-86
2023/02/01 04:43:48;;;;;;;27.07;24.53;;;4.80;91.80;;;;;;5016831;28;20224;-87
2023/02/01 04:46:14;;;;;;;25.00;21.73;;;4.70;91.80;;;;;;5018569;28;20177;-87
2023/02/01 04:48:40;;;;;;;27.60;22.60;;;4.70;91.80;;;;;;5017077;28;20603;-86
2023/02/01 04:51:06;;;;;;;27.00;23.40;;;4.70;91.90;;;;;;5016331;28;20208;-86
2023/02/01 04:53:31;;;;;;;23.90;22.00;;;4.70;91.90;;;;;;5015906;28;20207;-86
2023/02/01 04:55:57;;;;;;;25.17;23.10;;;4.40;91.70;;;;;;5017210;28;20175;-87
2023/02/01 04:58:23;;;;;;;26.73;24.80;;;4.20;91.80;;;;;;5016474;28;20228;-87
2023/02/01 05:00:49;;;;;;;24.90;22.73;;;4.10;92.00;;;;;;5015979;28;20251;-86
2023/02/01 05:03:15;;;;;;;24.77;22.70;;;4.10;91.90;;;;;;5016299;28;20189;-87
2023/02/01 05:05:40;;;;;;;25.63;23.80;;;4.00;91.90;;;;;;5017105;28;20188;-87
2023/02/01 05:08:06;;;;;;;25.73;24.10;;;4.00;92.00;;;;;;5022204;28;20275;-86
2023/02/01 05:10:31;;;;;;;24.73;23.00;;;4.00;92.00;;;;;;5023008;28;20203;-86
2023/02/01 05:15:41;;;;;;;27.37;25.17;;;3.80;92.00;;;;;;5023190;28;20172;-86
2023/02/01 05:18:07;;;;;;;25.63;23.77;;;3.80;92.20;;;;;;5020832;28;20181;-85
2023/02/01 05:20:32;;;;;;;26.50;24.60;;;3.80;92.20;;;;;;5021835;28;20197;-86
2023/02/01 05:22:58;;;;;;;27.97;25.90;;;3.70;92.30;;;;;;5020470;28;20185;-86
2023/02/01 05:25:23;;;;;;;27.90;26.13;;;3.70;92.40;;;;;;5019607;28;20185;-87
2023/02/01 05:27:49;;;;;;;31.20;29.03;;;3.70;92.70;;;;;;5019261;28;20192;-87
2023/02/01 05:30:15;;;;;;;28.37;25.87;;;3.70;92.80;;;;;;5019702;28;20209;-87
2023/02/01 05:32:40;;;;;;;28.37;26.20;;;3.60;92.80;;;;;;5020739;28;20208;-87
2023/02/01 05:35:06;;;;;;;27.67;25.37;;;3.60;92.80;;;;;;5020786;28;20221;-86
2023/02/01 05:37:32;;;;;;;29.27;27.10;;;3.60;92.90;;;;;;5020022;28;20623;-86
2023/02/01 05:39:57;;;;;;;28.33;26.20;;;3.50;92.80;;;;;;5019559;28;20228;-86
2023/02/01 05:42:23;;;;;;;30.27;28.07;;;3.50;92.90;;;;;;5019172;28;20636;-86
2023/02/01 05:44:48;;;;;;;27.67;25.80;;;3.50;93.00;;;;;;5019625;28;20193;-87
2023/02/01 05:47:14;;;;;;;28.60;26.43;;;3.30;93.10;;;;;;5019881;28;20188;-86
2023/02/01 05:49:39;;;;;;;32.53;30.40;;;3.30;93.30;;;;;;5019145;28;20255;-87
2023/02/01 05:52:05;;;;;;;32.03;30.00;;;3.30;93.30;;;;;;5019227;28;20741;-87
2023/02/01 05:54:30;;;;;;;36.33;33.47;;;3.30;93.40;;;;;;5021469;28;20174;-87
2023/02/01 05:56:56;;;;;;;36.27;33.00;;;3.30;93.50;;;;;;5019857;28;20187;-87
2023/02/01 05:59:21;;;;;;;35.37;33.17;;;3.30;93.50;;;;;;5020153;28;20188;-87
2023/02/01 06:01:47;;;;;;;37.90;34.90;;;3.30;93.50;;;;;;5019001;28;20585;-88
2023/02/01 06:04:12;;;;;;;35.37;33.00;;;3.30;93.60;;;;;;5019869;28;20181;-87
2023/02/01 06:06:38;;;;;;;37.33;34.47;;;3.40;93.60;;;;;;5020242;28;20174;-87
2023/02/01 06:09:03;;;;;;;37.17;34.60;;;3.40;93.70;;;;;;5021385;28;20170;-88
2023/02/01 06:11:29;;;;;;;38.70;35.90;;;3.50;93.70;;;;;;5019982;28;20292;-87
2023/02/01 06:13:55;;;;;;;40.40;37.10;;;3.50;93.70;;;;;;5020170;28;20221;-88
2023/02/01 06:16:21;;;;;;;41.27;37.20;;;3.50;93.70;;;;;;5019631;28;20205;-84
2023/02/01 06:18:47;;;;;;;44.67;39.70;;;3.60;93.80;;;;;;5019396;28;20173;-87
2023/02/01 06:21:23;;;;;;;46.93;41.97;;;3.60;93.90;;;;;;5018695;28;20285;-88
2023/02/01 06:23:52;;;;;;;46.43;42.50;;;3.80;93.90;;;;;;5019539;28;20153;-87
2023/02/01 06:26:18;;;;;;;47.97;42.87;;;3.80;93.90;;;;;;5019420;28;20204;-88
2023/02/01 06:28:43;;;;;;;52.33;41.20;;;3.90;94.00;;;;;;5018547;28;20206;-88
2023/02/01 06:31:09;;;;;;;54.53;41.27;;;4.00;94.00;;;;;;5021119;28;20203;-87
2023/02/01 06:33:36;;;;;;;49.37;39.17;;;4.20;94.00;;;;;;5020001;28;20289;-87
2023/02/01 06:36:04;;;;;;;53.93;40.30;;;4.40;93.90;;;;;;5021561;28;20256;-88
2023/02/01 06:38:30;;;;;;;49.73;42.23;;;4.40;93.60;;;;;;5020311;28;20751;-88
2023/02/01 06:40:57;;;;;;;56.17;39.97;;;4.40;93.60;;;;;;5019729;28;20199;-87
2023/02/01 06:43:24;;;;;;;50.33;39.77;;;4.50;93.50;;;;;;5019789;28;20192;-87
2023/02/01 06:45:50;;;;;;;52.37;37.53;;;4.50;93.50;;;;;;5020639;28;20181;-87
2023/02/01 06:48:16;;;;;;;55.73;45.37;;;4.50;93.40;;;;;;5019677;28;20181;-87
2023/02/01 06:50:42;;;;;;;61.67;45.10;;;4.60;93.50;;;;;;5019934;28;20197;-88
2023/02/01 06:53:07;;;;;;;63.67;43.30;;;4.60;93.40;;;;;;5019616;28;20208;-87
2023/02/01 06:55:33;;;;;;;56.47;42.87;;;4.70;93.50;;;;;;5020087;28;20183;-88
2023/02/01 06:57:58;;;;;;;69.50;44.70;;;4.80;93.40;;;;;;5019983;28;20191;-87
2023/02/01 07:00:24;;;;;;;52.03;40.50;;;4.80;93.40;;;;;;5019703;28;20276;-87
2023/02/01 07:02:50;;;;;;;49.63;40.27;;;4.80;93.30;;;;;;5019166;28;20193;-88
2023/02/01 07:05:16;;;;;;;62.67;38.40;;;4.80;93.10;;;;;;5019298;28;20593;-88
2023/02/01 07:07:42;;;;;;;50.27;36.40;;;4.80;93.10;;;;;;5018822;28;20585;-88
2023/02/01 07:10:08;;;;;;;63.17;37.93;;;5.10;92.90;;;;;;5017256;28;20181;-87
2023/02/01 07:12:35;;;;;;;66.00;41.30;;;5.10;92.80;;;;;;5018922;28;20586;-87
2023/02/01 07:15:02;;;;;;;58.13;38.10;;;5.10;92.80;;;;;;5017184;28;20176;-88
2023/02/01 07:17:29;;;;;;;62.80;38.00;;;5.20;92.80;;;;;;5020198;28;20698;-87
2023/02/01 07:19:55;;;;;;;56.47;39.77;;;5.10;92.70;;;;;;5019335;28;20245;-88
2023/02/01 07:22:20;;;;;;;53.37;32.10;;;5.10;92.70;;;;;;5019654;28;20184;-88
2023/02/01 07:24:46;;;;;;;61.53;31.97;;;5.20;92.40;;;;;;5018467;28;20185;-87
2023/02/01 07:27:11;;;;;;;54.30;30.17;;;5.20;92.00;;;;;;5019289;28;20267;-87
2023/02/01 07:29:37;;;;;;;51.80;30.50;;;5.30;91.80;;;;;;5017318;28;20187;-86
2023/02/01 07:32:02;;;;;;;58.10;30.13;;;5.30;91.60;;;;;;5018406;28;20283;-88
2023/02/01 07:34:30;;;;;;;50.27;28.87;;;5.30;91.70;;;;;;5017781;28;20184;-88
2023/02/01 07:36:56;;;;;;;61.80;30.87;;;5.20;91.70;;;;;;5019970;28;20176;-88
2023/02/01 07:39:21;;;;;;;58.70;27.90;;;5.20;91.50;;;;;;5018079;28;20543;-88
2023/02/01 07:41:47;;;;;;;47.43;26.80;;;5.30;91.40;;;;;;5017785;28;20197;-87
2023/02/01 07:44:12;;;;;;;56.33;28.63;;;5.30;91.10;;;;;;5017836;28;20184;-88
2023/02/01 07:46:39;;;;;;;62.53;27.17;;;5.30;91.00;;;;;;5016924;28;20275;-87
2023/02/01 07:49:05;;;;;;;49.73;28.43;;;5.30;91.00;;;;;;5017192;28;20188;-87
2023/02/01 07:51:30;;;;;;;52.30;27.37;;;5.30;91.00;;;;;;5017009;28;20209;-87
2023/02/01 07:53:56;;;;;;;49.83;24.90;;;5.30;91.00;;;;;;5019093;28;20208;-87
2023/02/01 07:56:22;;;;;;;41.87;25.33;;;5.20;90.80;;;;;;5017872;28;20205;-87
2023/02/01 07:58:49;;;;;;;46.47;23.03;;;5.30;90.60;;;;;;5018271;28;20208;-87
2023/02/01 08:01:20;;;;;;;40.73;22.63;;;5.30;90.10;;;;;;5019387;28;20302;-87
2023/02/01 08:03:51;;;;;;;44.70;23.27;;;5.30;89.80;;;;;;5019285;28;20161;-87
2023/02/01 08:06:17;;;;;;;48.37;23.57;;;5.30;89.80;;;;;;5018217;28;20200;-88
2023/02/01 08:08:44;;;;;;;24.90;20.30;;;5.30;89.50;;;;;;5018603;28;20184;-88
2023/02/01 08:11:10;;;;;;;40.03;20.90;;;5.30;89.40;;;;;;5018332;28;20211;-87
2023/02/01 08:13:36;;;;;;;40.57;21.83;;;5.50;88.90;;;;;;5017680;28;20204;-88
2023/02/01 08:16:04;;;;;;;38.77;21.47;;;5.60;89.10;;;;;;5017874;28;20190;-88
2023/02/01 08:18:30;;;;;;;33.53;19.30;;;5.60;89.10;;;;;;5019160;28;20589;-87
2023/02/01 08:20:56;;;;;;;28.37;18.13;;;5.40;88.40;;;;;;5017674;28;20246;-87
2023/02/01 08:23:22;;;;;;;20.17;18.03;;;5.30;88.50;;;;;;5019118;28;20173;-87
2023/02/01 08:25:48;;;;;;;42.83;19.93;;;5.30;88.00;;;;;;5017358;28;20215;-87
2023/02/01 08:28:14;;;;;;;25.90;18.43;;;5.30;88.30;;;;;;5017600;28;20554;-88
2023/02/01 08:30:42;;;;;;;23.57;17.90;;;5.10;88.40;;;;;;5019496;28;20322;-87
2023/02/01 08:33:07;;;;;;;41.60;20.00;;;5.10;88.30;;;;;;5019573;28;20220;-87
2023/02/01 08:35:35;;;;;;;28.90;20.90;;;5.20;88.70;;;;;;5020886;28;20595;-88
2023/02/01 08:38:01;;;;;;;39.70;21.63;;;5.10;89.10;;;;;;5020757;28;20178;-89
2023/02/01 08:40:26;;;;;;;35.57;24.57;;;5.00;89.60;;;;;;5020616;28;20294;-88
2023/02/01 08:42:52;;;;;;;36.93;23.63;;;5.00;89.90;;;;;;5023685;28;20187;-88
2023/02/01 08:45:23;;;;;;;38.10;23.50;;;5.00;90.10;;;;;;5022272;28;20223;-88
2023/02/01 08:47:50;;;;;;;41.07;23.17;;;5.10;90.30;;;;;;5022713;28;20183;-88
2023/02/01 08:50:16;;;;;;;46.20;23.57;;;5.20;90.30;;;;;;5021844;28;20196;-88
2023/02/01 08:52:42;;;;;;;51.13;24.23;;;5.30;90.40;;;;;;5021130;28;20208;-88
2023/02/01 08:55:08;;;;;;;37.63;22.87;;;5.40;90.40;;;;;;5021328;28;20180;-89
2023/02/01 08:57:34;;;;;;;44.53;21.97;;;5.50;90.30;;;;;;5023806;28;20180;-87
2023/02/01 09:00:00;;;;;;;34.40;21.03;;;5.50;89.80;;;;;;5020690;28;20182;-88
2023/02/01 09:02:26;;;;;;;46.73;22.90;;;5.50;89.70;;;;;;5021207;28;20177;-88
2023/02/01 09:04:52;;;;;;;42.00;23.07;;;5.50;89.50;;;;;;5022123;28;20177;-87
2023/02/01 09:07:18;;;;;;;45.47;22.30;;;5.60;89.50;;;;;;5022259;28;20191;-88
2023/02/01 09:09:44;;;;;;;40.47;21.33;;;5.60;89.20;;;;;;5021980;28;20192;-88
2023/02/01 09:12:10;;;;;;;46.40;20.13;;;5.70;88.90;;;;;;5023489;28;20196;-88
2023/02/01 09:14:36;;;;;;;42.87;22.23;;;5.70;88.70;;;;;;5022235;28;20181;-87
2023/02/01 09:17:02;;;;;;;38.87;22.30;;;5.70;88.90;;;;;;5019945;28;20184;-88
2023/02/01 09:19:27;;;;;;;38.40;21.80;;;5.60;89.20;;;;;;5020230;28;20177;-88
2023/02/01 09:21:53;;;;;;;31.93;21.43;;;5.80;89.40;;;;;;5022913;28;20197;-88
2023/02/01 09:24:18;;;;;;;45.60;22.63;;;5.90;89.30;;;;;;5023460;28;20180;-88
2023/02/01 09:26:44;;;;;;;51.50;22.73;;;5.90;89.20;;;;;;5024146;28;20214;-88
2023/02/01 09:29:10;;;;;;;43.83;23.73;;;5.90;89.10;;;;;;5021620;28;20283;-89
2023/02/01 09:31:36;;;;;;;40.37;21.40;;;5.90;89.20;;;;;;5020660;28;20205;-87
2023/02/01 09:34:02;;;;;;;46.57;20.07;;;6.00;88.90;;;;;;5020547;28;20687;-88
2023/02/01 09:36:27;;;;;;;39.00;19.23;;;6.10;88.60;;;;;;5020449;28;20332;-87
2023/02/01 09:38:53;;;;;;;30.83;20.03;;;6.20;87.90;;;;;;5020119;28;20636;-87
2023/02/01 09:41:45;;;;;;;35.50;19.40;;;6.30;88.40;;;;;;5021369;28;20197;-87
2023/02/01 09:44:22;;;;;;;36.63;18.77;;;6.20;88.30;;;;;;5022016;28;20182;-88
2023/02/01 09:46:48;;;;;;;45.80;19.13;;;6.30;88.10;;;;;;5021172;28;20189;-87
2023/02/01 09:49:26;;;;;;;43.40;19.57;;;6.30;87.50;;;;;;5021323;28;20185;-88
2023/02/01 09:51:53;;;;;;;41.40;18.90;;;6.30;88.00;;;;;;5020535;28;20197;-88
2023/02/01 09:54:29;;;;;;;33.03;17.60;;;6.30;87.90;;;;;;5021170;28;20236;-87
2023/02/01 09:57:03;;;;;;;22.40;16.80;;;6.30;87.30;;;;;;5021414;28;20181;-87
2023/02/01 09:59:53;;;;;;;35.40;16.57;;;6.30;87.70;;;;;;5020285;28;20187;-87
2023/02/01 10:02:26;;;;;;;46.03;19.50;;;6.30;87.40;;;;;;5026896;28;20189;-88
2023/02/01 10:04:55;;;;;;;40.40;21.50;;;6.30;87.40;;;;;;5019429;28;20214;-87
2023/02/01 10:07:46;;;;;;;44.70;20.10;;;6.20;88.30;;;;;;5015467;28;20209;-87
2023/02/01 10:10:18;;;;;;;33.47;20.07;;;6.20;88.40;;;;;;5016898;28;20205;-87
2023/02/01 10:13:17;;;;;;;32.50;20.23;;;6.30;88.20;;;;;;5015637;28;20205;-87
2023/02/01 10:16:02;;;;;;;53.33;23.47;;;6.20;88.80;;;;;;5015366;28;20181;-88
2023/02/01 10:18:43;;;;;;;55.57;22.90;;;6.10;89.40;;;;;;5016753;28;20182;-87
2023/02/01 10:21:14;;;;;;;51.87;22.30;;;6.10;89.60;;;;;;5016575;28;20197;-87
2023/02/01 10:24:11;;;;;;;35.50;22.23;;;6.00;89.40;;;;;;5015751;28;20177;-88
2023/02/01 10:26:42;;;;;;;44.50;24.47;;;5.90;89.70;;;;;;5014395;28;20189;-88
2023/02/01 10:29:16;;;;;;;52.57;24.77;;;5.90;89.90;;;;;;5014398;28;20181;-88
2023/02/01 10:31:42;;;;;;;58.90;24.97;;;6.00;90.00;;;;;;5014591;28;20576;-88
2023/02/01 10:34:31;;;;;;;39.20;24.77;;;6.00;90.20;;;;;;5014408;28;20209;-88
2023/02/01 10:37:01;;;;;;;39.27;24.37;;;6.00;90.30;;;;;;5015159;28;20176;-88
2023/02/01 10:39:27;;;;;;;53.07;25.67;;;6.00;90.30;;;;;;5014278;28;20240;-88
2023/02/01 10:41:54;;;;;;;37.17;22.90;;;5.90;90.40;;;;;;5014132;28;20659;-88
2023/02/01 10:44:24;;;;;;;49.40;25.50;;;5.80;89.90;;;;;;5013856;28;20195;-88
2023/02/01 10:46:51;;;;;;;42.40;23.13;;;5.10;90.10;;;;;;5015261;28;20627;-89
2023/02/01 10:49:28;;;;;;;55.80;26.70;;;5.10;90.70;;;;;;5013759;28;20181;-89
2023/02/01 10:52:04;;;;;;;43.27;29.23;;;5.10;91.00;;;;;;5013848;28;20201;-89
2023/02/01 10:54:38;;;;;;;45.93;31.17;;;5.10;91.30;;;;;;5015260;28;20271;-89
2023/02/01 10:57:10;;;;;;;57.83;30.47;;;5.30;91.60;;;;;;5013986;28;20204;-89
2023/02/01 10:59:38;;;;;;;40.63;26.90;;;5.60;91.60;;;;;;5014162;28;20524;-88
2023/02/01 11:02:32;;;;;;;39.80;28.60;;;5.80;91.30;;;;;;5014882;28;20289;-89
2023/02/01 11:05:09;;;;;;;54.93;25.70;;;5.80;91.10;;;;;;5013693;28;20260;-89
2023/02/01 11:07:35;;;;;;;37.63;24.30;;;5.90;90.90;;;;;;5013541;28;20230;-87
2023/02/01 11:10:01;;;;;;;52.60;22.43;;;6.00;90.30;;;;;;5013691;28;20170;-87
2023/02/01 11:12:36;;;;;;;42.63;21.30;;;6.10;90.00;;;;;;5013387;28;20225;-87
2023/02/01 11:15:22;;;;;;;35.20;21.40;;;6.20;89.50;;;;;;5013373;28;20173;-86
2023/02/01 11:17:56;;;;;;;38.37;19.43;;;6.20;89.20;;;;;;5013536;28;20177;-87
2023/02/01 11:20:41;;;;;;;36.40;21.07;;;6.20;88.70;;;;;;5013360;28;20194;-90
2023/02/01 11:23:15;;;;;;;26.03;15.60;;;6.30;88.40;;;;;;5014431;28;20543;-87
2023/02/01 11:25:58;;;;;;;27.17;16.37;;;6.30;87.00;;;;;;5013272;28;20232;-87
2023/02/01 11:28:30;;;;;;;32.73;16.07;;;6.30;87.00;;;;;;5013432;28;20200;-87
2023/02/01 11:31:01;;;;;;;31.90;16.63;;;6.30;86.70;;;;;;5013257;28;20276;-87
2023/02/01 11:33:33;;;;;;;32.03;18.47;;;6.30;86.90;;;;;;5013413;28;20201;-87
2023/02/01 11:36:00;;;;;;;36.87;16.93;;;6.30;87.10;;;;;;5014295;28;20177;-87
2023/02/01 11:38:32;;;;;;;19.37;15.30;;;6.30;86.60;;;;;;5013644;28;20267;-87
2023/02/01 11:41:21;;;;;;;24.63;15.93;;;6.20;87.10;;;;;;5014062;28;20193;-86
2023/02/01 11:43:58;;;;;;;24.37;16.10;;;6.10;86.90;;;;;;5015112;28;20157;-87
2023/02/01 11:46:31;;;;;;;31.30;16.00;;;6.10;87.10;;;;;;5013449;28;20183;-88
2023/02/01 11:49:13;;;;;;;19.63;17.60;;;6.20;86.90;;;;;;5013698;28;20616;-86
2023/02/01 11:52:14;;;;;;;18.10;15.73;;;6.10;87.40;;;;;;5014029;28;20197;-87
2023/02/01 11:54:43;;;;;;;23.63;21.33;;;6.00;88.10;;;;;;5013347;28;20191;-87
2023/02/01 11:57:30;;;;;;;26.50;21.70;;;5.80;89.50;;;;;;5013365;28;20635;-87
2023/02/01 11:59:56;;;;;;;33.37;23.17;;;5.80;90.10;;;;;;5012913;28;20705;-88
2023/02/01 12:02:40;;;;;;;23.43;18.20;;;5.70;90.30;;;;;;5013159;28;20177;-88
2023/02/01 12:05:29;;;;;;;19.83;17.40;;;5.60;89.90;;;;;;5013136;28;20609;-87
2023/02/01 12:08:01;;;;;;;20.87;17.33;;;5.60;89.20;;;;;;5013623;28;20177;-88
2023/02/01 12:10:47;;;;;;;20.07;17.23;;;5.60;88.60;;;;;;5013469;28;20193;-88
2023/02/01 12:13:33;;;;;;;17.20;15.83;;;5.50;89.00;;;;;;5013636;28;20263;-88
2023/02/01 12:16:30;;;;;;;24.47;19.40;;;5.20;88.90;;;;;;5018347;28;20212;-89
2023/02/01 12:19:14;;;;;;;19.77;18.03;;;5.10;90.10;;;;;;5019594;28;20184;-88
2023/02/01 12:22:12;;;;;;;19.27;17.57;;;5.00;90.60;;;;;;5019568;28;20232;-88
2023/02/01 12:25:15;;;;;;;18.73;17.20;;;4.80;90.50;;;;;;5019812;28;20204;-89
2023/02/01 12:27:46;;;;;;;21.13;19.70;;;4.80;90.60;;;;;;5019629;28;20225;-88
2023/02/01 12:30:50;;;;;;;20.63;18.80;;;4.60;90.40;;;;;;5020964;28;20196;-88
2023/02/01 12:33:29;;;;;;;21.93;20.50;;;4.70;90.60;;;;;;5019813;28;20206;-87
2023/02/01 12:36:10;;;;;;;23.17;21.87;;;4.60;90.80;;;;;;5019441;28;20168;-90
2023/02/01 12:38:59;;;;;;;22.13;20.17;;;4.50;91.20;;;;;;5019748;28;20172;-87
2023/02/01 12:41:43;;;;;;;20.60;19.30;;;4.50;91.30;;;;;;5020288;28;20200;-88
2023/02/01 12:44:32;;;;;;;21.17;19.47;;;4.50;91.00;;;;;;5021248;28;20242;-89
2023/02/01 12:47:27;;;;;;;18.83;17.53;;;4.50;91.10;;;;;;5020462;28;20169;-88
2023/02/01 12:50:04;;;;;;;18.07;17.07;;;4.50;90.70;;;;;;5018873;28;20192;-88
2023/02/01 12:52:44;;;;;;;18.63;17.57;;;4.40;90.70;;;;;;5020969;28;20195;-88
2023/02/01 12:55:35;;;;;;;19.93;18.20;;;4.30;90.80;;;;;;5020526;28;20537;-88
2023/02/01 12:58:12;;;;;;;20.47;18.70;;;4.30;91.00;;;;;;5020938;28;20191;-88
2023/02/01 13:00:43;;;;;;;17.10;16.00;;;4.40;91.00;;;;;;5019350;28;20629;-88
2023/02/01 13:03:33;;;;;;;17.33;16.43;;;4.60;90.30;;;;;;5020792;28;20636;-89
2023/02/01 13:06:06;;;;;;;18.70;17.30;;;4.70;90.10;;;;;;5019617;28;20175;-88
2023/02/01 13:08:44;;;;;;;15.63;14.23;;;4.80;90.30;;;;;;5019219;28;20195;-88
2023/02/01 13:11:20;;;;;;;16.30;14.97;;;5.20;89.70;;;;;;5019563;28;20504;-87
2023/02/01 13:13:55;;;;;;;16.77;15.60;;;5.30;89.20;;;;;;5019346;28;20589;-88
2023/02/01 13:16:28;;;;;;;15.63;14.23;;;5.40;88.60;;;;;;5020062;28;20218;-88
2023/02/01 13:19:04;;;;;;;15.00;14.10;;;5.40;88.60;;;;;;5021108;28;20180;-88